createdAt,value
2022-08-22T00:00:13.308Z,2.30
2022-08-22T00:02:48.341Z,2.22
2022-08-22T00:03:15.428Z,2.17
2022-08-22T00:05:39.806Z,2.30
2022-08-22T00:08:12.510Z,2.00
2022-08-22T00:10:52.464Z,1.90
2022-08-22T00:13:24.075Z,2.00
2022-08-22T00:15:59.406Z,2.00
2022-08-22T00:18:31.819Z,2.35
2022-08-22T00:21:05.550Z,2.20
2022-08-22T00:23:38.907Z,2.15
2022-08-22T00:26:09.228Z,2.10
2022-08-22T00:28:39.900Z,2.10
2022-08-22T00:31:13.403Z,2.10
2022-08-22T00:33:44.642Z,2.15
2022-08-22T00:36:17.011Z,2.25
2022-08-22T00:38:49.803Z,2.28
2022-08-22T00:41:26.665Z,2.10
2022-08-22T00:44:25.304Z,1.80
2022-08-22T00:47:00.017Z,2.20
2022-08-22T00:49:39.338Z,2.10
2022-08-22T00:52:20.380Z,2.35
2022-08-22T00:55:01.458Z,2.17
2022-08-22T00:57:43.538Z,2.00
2022-08-22T01:00:14.710Z,2.20
2022-08-22T01:02:53.098Z,2.08
2022-08-22T01:05:27.690Z,1.90
2022-08-22T01:08:18.104Z,2.50
2022-08-22T01:11:00.684Z,2.65
2022-08-22T01:13:47.171Z,2.70
2022-08-22T01:16:23.618Z,2.95
2022-08-22T01:18:58.570Z,3.00
2022-08-22T01:21:44.971Z,2.58
2022-08-22T01:24:31.779Z,3.00
2022-08-22T01:27:19.942Z,2.88
2022-08-22T01:30:03.642Z,3.13
2022-08-22T01:33:03.172Z,3.20
2022-08-22T01:35:49.150Z,3.15
2022-08-22T01:38:25.411Z,3.38
2022-08-22T01:41:12.062Z,3.53
2022-08-22T01:43:59.670Z,3.10
2022-08-22T01:46:35.739Z,3.00
2022-08-22T01:49:09.814Z,2.85
2022-08-22T01:51:40.179Z,2.45
2022-08-22T01:54:13.934Z,2.50
2022-08-22T01:56:44.501Z,2.65
2022-08-22T01:59:15.068Z,2.80
2022-08-22T02:01:54.397Z,2.85
2022-08-22T02:04:31.102Z,2.35
2022-08-22T02:07:02.621Z,3.00
2022-08-22T02:09:37.861Z,2.80
2022-08-22T02:12:21.956Z,2.78
2022-08-22T02:14:54.902Z,2.90
2022-08-22T02:17:26.231Z,2.33
2022-08-22T02:19:59.375Z,2.80
2022-08-22T02:22:32.454Z,2.40
2022-08-22T02:25:08.943Z,2.65
2022-08-22T02:27:40.800Z,2.50
2022-08-22T02:30:10.945Z,2.55
2022-08-22T02:32:47.125Z,2.70
2022-08-22T02:35:21.265Z,2.58
2022-08-22T02:37:57.638Z,2.55
2022-08-22T02:40:32.214Z,2.58
2022-08-22T02:43:02.989Z,2.47
2022-08-22T02:45:39.028Z,2.65
2022-08-22T02:48:13.405Z,2.45
2022-08-22T02:50:45.994Z,2.50
2022-08-22T02:53:17.526Z,2.60
2022-08-22T02:55:52.451Z,2.38
2022-08-22T02:58:25.154Z,2.50
2022-08-22T03:01:10.716Z,2.67
2022-08-22T03:03:40.892Z,2.30
2022-08-22T03:06:29.985Z,2.40
2022-08-22T03:09:04.555Z,2.53
2022-08-22T03:11:37.598Z,2.60
2022-08-22T03:14:09.965Z,2.70
2022-08-22T03:16:40.702Z,2.67
2022-08-22T03:19:14.943Z,2.65
2022-08-22T03:21:50.122Z,2.50
2022-08-22T03:24:22.577Z,2.60
2022-08-22T03:26:54.163Z,2.20
2022-08-22T03:29:26.075Z,2.33
2022-08-22T03:32:09.862Z,2.80
2022-08-22T03:34:38.771Z,2.50
2022-08-22T03:37:14.871Z,2.70
2022-08-22T03:39:50.521Z,2.50
2022-08-22T03:42:29.428Z,2.83
2022-08-22T03:45:16.539Z,2.70
2022-08-22T03:47:57.927Z,2.67
2022-08-22T03:50:41.220Z,3.08
2022-08-22T03:53:28.261Z,2.70
2022-08-22T03:56:15.150Z,2.78
2022-08-22T03:58:58.552Z,2.60
2022-08-22T04:01:45.714Z,2.50
2022-08-22T04:04:32.690Z,2.60
2022-08-22T04:07:17.757Z,2.65
2022-08-22T04:10:17.328Z,2.70
2022-08-22T04:13:01.453Z,2.42
2022-08-22T04:15:50.567Z,2.42
2022-08-22T04:18:26.401Z,2.58
2022-08-22T04:21:09.693Z,2.97
2022-08-22T04:23:45.833Z,2.60
2022-08-22T04:26:17.315Z,2.58
2022-08-22T04:28:49.216Z,2.67
2022-08-22T04:31:21.030Z,2.80
2022-08-22T04:33:52.538Z,2.88
2022-08-22T04:36:22.972Z,2.75
2022-08-22T04:38:55.571Z,2.60
2022-08-22T04:41:26.717Z,2.80
2022-08-22T04:43:57.006Z,2.80
2022-08-22T04:46:36.744Z,2.70
2022-08-22T04:49:07.486Z,2.92
2022-08-22T04:51:38.090Z,2.58
2022-08-22T04:54:13.457Z,2.53
2022-08-22T04:56:47.023Z,2.58
2022-08-22T04:59:17.913Z,2.60
2022-08-22T05:01:49.433Z,2.63
2022-08-22T05:04:20.587Z,3.00
2022-08-22T05:06:55.342Z,2.97
2022-08-22T05:09:27.795Z,2.72
2022-08-22T05:11:59.397Z,2.90
2022-08-22T05:14:30.085Z,2.88
2022-08-22T05:17:00.600Z,2.70
2022-08-22T05:19:32.466Z,2.80
2022-08-22T05:22:01.771Z,3.03
2022-08-22T05:24:33.717Z,2.60
2022-08-22T05:27:07.093Z,2.80
2022-08-22T05:29:35.633Z,2.70
2022-08-22T05:32:07.412Z,2.25
2022-08-22T05:34:39.427Z,2.63
2022-08-22T05:37:10.579Z,2.95
2022-08-22T05:39:40.422Z,2.70
2022-08-22T05:42:13.919Z,2.70
2022-08-22T05:44:42.576Z,2.45
2022-08-22T05:47:21.382Z,2.42
2022-08-22T05:49:52.987Z,2.88
2022-08-22T05:52:39.008Z,2.85
2022-08-22T05:55:10.004Z,2.80
2022-08-22T05:57:49.010Z,2.92
2022-08-22T06:00:23.235Z,2.40
2022-08-22T06:03:03.767Z,2.70
2022-08-22T06:05:34.383Z,2.80
2022-08-22T06:08:04.312Z,2.40
2022-08-22T06:10:40.224Z,2.70
2022-08-22T06:13:24.345Z,2.97
2022-08-22T06:15:56.873Z,2.40
2022-08-22T06:18:29.196Z,3.05
2022-08-22T06:20:59.756Z,2.72
2022-08-22T06:23:29.771Z,2.92
2022-08-22T06:26:00.516Z,2.80
2022-08-22T06:28:32.853Z,2.40
2022-08-22T06:31:03.828Z,2.53
2022-08-22T06:33:36.240Z,2.30
2022-08-22T06:36:23.881Z,2.53
2022-08-22T06:38:58.816Z,2.40
2022-08-22T06:41:30.490Z,2.55
2022-08-22T06:44:00.317Z,2.20
2022-08-22T06:46:30.771Z,2.30
2022-08-22T06:49:01.970Z,2.00
2022-08-22T06:51:31.183Z,2.15
2022-08-22T06:54:02.603Z,2.08
2022-08-22T06:56:34.802Z,2.60
2022-08-22T06:59:05.059Z,2.60
2022-08-22T07:01:36.264Z,2.20
2022-08-22T07:04:08.106Z,2.13
2022-08-22T07:06:38.030Z,1.90
2022-08-22T07:09:07.331Z,2.10
2022-08-22T07:11:38.683Z,2.08
2022-08-22T07:14:08.760Z,2.40
2022-08-22T07:16:49.116Z,2.35
2022-08-22T07:19:27.021Z,2.28
2022-08-22T07:21:56.615Z,2.28
2022-08-22T07:24:27.274Z,2.58
2022-08-22T07:27:08.925Z,2.50
2022-08-22T07:29:44.244Z,2.58
2022-08-22T07:32:17.165Z,2.40
2022-08-22T07:34:54.457Z,2.50
2022-08-22T07:37:27.852Z,2.63
2022-08-22T07:40:01.498Z,2.65
2022-08-22T07:42:34.962Z,2.60
2022-08-22T07:45:09.622Z,3.75
2022-08-22T07:47:48.017Z,4.07
2022-08-22T07:50:22.521Z,5.45
2022-08-22T07:52:52.111Z,5.82
2022-08-22T07:55:22.646Z,4.15
2022-08-22T07:57:55.333Z,4.30
2022-08-22T08:00:24.715Z,4.63
2022-08-22T08:02:54.435Z,5.75
2022-08-22T08:05:27.427Z,4.13
2022-08-22T08:07:56.839Z,3.60
2022-08-22T08:10:28.208Z,4.03
2022-08-22T08:13:02.434Z,4.60
2022-08-22T08:15:33.002Z,3.35
2022-08-22T08:18:05.447Z,3.30
2022-08-22T08:20:38.375Z,2.75
2022-08-22T08:23:08.307Z,3.70
2022-08-22T08:25:53.610Z,3.40
2022-08-22T08:28:34.309Z,3.40
2022-08-22T08:31:07.722Z,2.83
2022-08-22T08:33:38.148Z,3.60
2022-08-22T08:36:11.564Z,3.75
2022-08-22T08:38:43.798Z,3.58
2022-08-22T08:41:29.942Z,3.15
2022-08-22T08:44:01.747Z,3.60
2022-08-22T08:46:50.206Z,3.17
2022-08-22T08:49:42.742Z,3.10
2022-08-22T08:52:24.602Z,3.55
2022-08-22T08:54:58.876Z,3.15
2022-08-22T08:57:36.899Z,2.83
2022-08-22T09:00:09.572Z,2.85
2022-08-22T09:02:49.830Z,3.83
2022-08-22T09:05:30.363Z,2.60
2022-08-22T09:08:12.809Z,2.50
2022-08-22T09:10:53.474Z,2.90
2022-08-22T09:13:40.855Z,2.85
2022-08-22T09:16:37.927Z,2.70
2022-08-22T09:19:34.781Z,3.13
2022-08-22T09:22:14.160Z,2.85
2022-08-22T09:25:00.449Z,2.60
2022-08-22T09:27:34.461Z,3.00
2022-08-22T09:30:06.264Z,2.65
2022-08-22T09:32:44.069Z,2.53
2022-08-22T09:35:17.435Z,3.20
2022-08-22T09:38:07.587Z,2.63
2022-08-22T09:40:41.534Z,2.75
2022-08-22T09:43:13.075Z,2.75
2022-08-22T09:45:52.094Z,2.60
2022-08-22T09:48:33.046Z,2.78
2022-08-22T09:51:28.546Z,2.38
2022-08-22T09:54:16.482Z,3.00
2022-08-22T09:56:55.204Z,2.58
2022-08-22T09:59:26.367Z,2.80
2022-08-22T10:01:57.801Z,2.55
2022-08-22T10:04:42.001Z,2.47
2022-08-22T10:07:17.666Z,2.90
2022-08-22T10:09:53.642Z,2.40
2022-08-22T10:12:30.541Z,2.50
2022-08-22T10:15:18.235Z,2.70
2022-08-22T10:18:10.464Z,2.70
2022-08-22T10:20:53.369Z,2.75
2022-08-22T10:23:29.865Z,2.28
2022-08-22T10:26:11.428Z,2.47
2022-08-22T10:28:56.849Z,2.55
2022-08-22T10:31:38.488Z,2.80
2022-08-22T10:34:31.509Z,2.45
2022-08-22T10:37:10.349Z,2.65
2022-08-22T10:39:45.623Z,2.30
2022-08-22T10:42:28.023Z,2.50
2022-08-22T10:45:35.128Z,2.60
2022-08-22T10:48:32.650Z,2.70
2022-08-22T10:51:12.358Z,2.63
2022-08-22T10:53:58.131Z,2.53
2022-08-22T10:56:34.074Z,3.45
2022-08-22T10:59:12.589Z,3.10
2022-08-22T11:01:51.605Z,2.83
2022-08-22T11:04:38.743Z,2.90
2022-08-22T11:07:21.409Z,2.70
2022-08-22T11:09:58.699Z,2.50
2022-08-22T11:12:36.659Z,2.88
2022-08-22T11:15:28.274Z,2.30
2022-08-22T11:18:20.550Z,2.60
2022-08-22T11:21:00.555Z,2.38
2022-08-22T11:23:44.827Z,2.67
2022-08-22T11:26:35.852Z,2.72
2022-08-22T11:29:34.376Z,2.60
2022-08-22T11:32:09.491Z,2.55
2022-08-22T11:34:57.227Z,2.67
2022-08-22T11:37:46.219Z,2.70
2022-08-22T11:40:33.877Z,2.70
2022-08-22T11:43:18.208Z,2.70
2022-08-22T11:45:49.591Z,3.08
2022-08-22T11:48:23.501Z,2.90
2022-08-22T11:51:13.227Z,2.35
2022-08-22T11:53:47.755Z,2.30
2022-08-22T11:56:24.629Z,2.50
2022-08-22T11:59:00.465Z,2.50
2022-08-22T12:01:37.921Z,2.53
2022-08-22T12:04:13.355Z,2.30
2022-08-22T12:06:57.938Z,2.55
2022-08-22T12:09:52.250Z,2.60
2022-08-22T12:12:38.921Z,2.47
2022-08-22T12:15:21.198Z,2.60
2022-08-22T12:18:29.593Z,2.60
2022-08-22T12:21:38.423Z,2.42
2022-08-22T12:24:39.146Z,2.40
2022-08-22T12:27:32.242Z,2.70
2022-08-22T12:30:14.173Z,2.60
2022-08-22T12:33:13.298Z,2.65
2022-08-22T12:35:54.287Z,2.42
2022-08-22T12:38:52.063Z,2.22
2022-08-22T12:41:40.179Z,2.60
2022-08-22T12:44:28.926Z,2.40
2022-08-22T12:47:19.046Z,2.60
2022-08-22T12:50:09.115Z,2.20
2022-08-22T12:53:00.572Z,2.50
2022-08-22T12:55:39.765Z,2.38
2022-08-22T12:58:24.238Z,2.40
2022-08-22T13:00:53.355Z,2.40
2022-08-22T13:03:26.319Z,2.85
2022-08-22T13:06:00.171Z,2.50
2022-08-22T13:08:33.511Z,2.70
2022-08-22T13:11:22.762Z,2.40
2022-08-22T13:13:57.367Z,2.42
2022-08-22T13:16:28.027Z,2.45
2022-08-22T13:19:00.987Z,2.50
2022-08-22T13:21:44.769Z,2.60
2022-08-22T13:24:22.741Z,2.40
2022-08-22T13:27:11.076Z,2.60
2022-08-22T13:29:47.261Z,2.30
2022-08-22T13:32:23.528Z,3.00
2022-08-22T13:34:58.038Z,3.00
2022-08-22T13:37:33.220Z,2.70
2022-08-22T13:40:05.427Z,2.65
2022-08-22T13:42:39.924Z,2.70
2022-08-22T13:45:18.317Z,2.30
2022-08-22T13:47:53.894Z,2.30
2022-08-22T13:50:28.713Z,2.67
2022-08-22T13:53:08.499Z,2.58
2022-08-22T13:55:49.161Z,2.88
2022-08-22T13:58:27.543Z,2.20
2022-08-22T14:01:28.938Z,2.80
2022-08-22T14:04:01.587Z,2.60
2022-08-22T14:06:41.340Z,2.70
2022-08-22T14:09:29.629Z,2.35
2022-08-22T14:12:11.930Z,2.40
2022-08-22T14:14:46.129Z,2.50
2022-08-22T14:17:21.465Z,2.63
2022-08-22T14:19:59.692Z,2.30
2022-08-22T14:22:35.392Z,2.30
2022-08-22T14:25:09.869Z,2.40
2022-08-22T14:27:44.049Z,2.20
2022-08-22T14:30:18.801Z,2.40
2022-08-22T14:32:51.944Z,2.78
2022-08-22T14:35:34.759Z,2.25
2022-08-22T14:38:27.341Z,2.33
2022-08-22T14:41:03.448Z,2.22
2022-08-22T14:43:48.589Z,2.30
2022-08-22T14:46:26.721Z,2.00
2022-08-22T14:49:38.221Z,2.15
2022-08-22T14:52:10.206Z,2.08
2022-08-22T14:54:48.170Z,2.10
2022-08-22T14:57:22.434Z,2.15
2022-08-22T14:59:53.788Z,2.30
2022-08-22T15:02:28.366Z,1.95
2022-08-22T15:05:01.778Z,1.98
2022-08-22T15:07:35.687Z,2.13
2022-08-22T15:10:11.971Z,1.85
2022-08-22T15:12:47.790Z,1.88
2022-08-22T15:15:30.568Z,2.13
2022-08-22T15:17:59.020Z,2.30
2022-08-22T15:20:36.191Z,2.10
2022-08-22T15:23:10.371Z,2.25
2022-08-22T15:25:42.591Z,2.20
2022-08-22T15:28:21.335Z,2.22
2022-08-22T15:31:03.451Z,2.33
2022-08-22T15:33:34.946Z,2.20
2022-08-22T15:36:16.318Z,2.15
2022-08-22T15:38:47.965Z,1.85
2022-08-22T15:41:39.507Z,2.10
2022-08-22T15:44:14.966Z,2.20
2022-08-22T15:47:11.863Z,2.03
2022-08-22T15:49:56.386Z,1.90
2022-08-22T15:52:29.805Z,2.00
2022-08-22T15:55:34.510Z,1.80
2022-08-22T15:58:07.943Z,1.90
2022-08-22T16:00:43.486Z,1.90
2022-08-22T16:03:24.678Z,1.80
2022-08-22T16:05:56.330Z,1.90
2022-08-22T16:08:33.139Z,1.88
2022-08-22T16:11:29.683Z,1.77
2022-08-22T16:14:21.867Z,1.92
2022-08-22T16:16:57.786Z,2.10
2022-08-22T16:19:28.515Z,1.83
2022-08-22T16:22:14.118Z,3.10
2022-08-22T16:25:04.858Z,2.92
2022-08-22T16:27:35.289Z,2.20
2022-08-22T16:30:16.814Z,1.98
2022-08-22T16:32:57.792Z,2.08
2022-08-22T16:36:03.845Z,2.00
2022-08-22T16:38:41.942Z,2.38
2022-08-22T16:41:28.457Z,2.35
2022-08-22T16:44:23.915Z,2.10
2022-08-22T16:46:55.495Z,2.30
2022-08-22T16:49:31.541Z,2.30
2022-08-22T16:52:37.086Z,2.13
2022-08-22T16:55:07.440Z,2.67
2022-08-22T16:58:04.948Z,2.30
2022-08-22T17:00:41.463Z,2.50
2022-08-22T17:03:19.324Z,2.47
2022-08-22T17:06:00.934Z,2.33
2022-08-22T17:08:48.319Z,2.58
2022-08-22T17:11:30.935Z,2.13
2022-08-22T17:14:18.718Z,2.22
2022-08-22T17:17:01.136Z,2.40
2022-08-22T17:20:01.863Z,2.47
2022-08-22T17:22:39.844Z,2.25
2022-08-22T17:25:21.362Z,2.40
2022-08-22T17:27:56.542Z,2.20
2022-08-22T17:30:35.275Z,2.17
2022-08-22T17:33:18.205Z,2.40
2022-08-22T17:36:00.794Z,2.67
2022-08-22T17:38:42.671Z,2.30
2022-08-22T17:41:25.287Z,2.05
2022-08-22T17:44:04.489Z,2.15
2022-08-22T17:46:46.082Z,2.00
2022-08-22T17:49:21.445Z,3.10
2022-08-22T17:51:58.810Z,2.38
2022-08-22T17:54:34.296Z,2.10
2022-08-22T17:57:07.976Z,2.10
2022-08-22T17:59:50.118Z,1.98
2022-08-22T18:02:26.674Z,1.80
2022-08-22T18:05:05.364Z,2.35
2022-08-22T18:07:55.222Z,2.65
2022-08-22T18:10:38.352Z,2.80
2022-08-22T18:13:12.835Z,2.92
2022-08-22T18:15:51.425Z,2.80
2022-08-22T18:18:32.231Z,3.20
2022-08-22T18:21:05.203Z,3.50
2022-08-22T18:23:39.943Z,4.00
2022-08-22T18:26:21.807Z,4.55
2022-08-22T18:28:58.747Z,5.22
2022-08-22T18:31:53.510Z,4.95
2022-08-22T18:34:38.323Z,5.00
2022-08-22T18:37:20.939Z,3.60
2022-08-22T18:39:55.157Z,3.13
2022-08-22T18:42:28.554Z,3.17
2022-08-22T18:44:57.385Z,3.00
2022-08-22T18:47:32.785Z,2.80
2022-08-22T18:50:24.642Z,3.03
2022-08-22T18:52:57.432Z,2.60
2022-08-22T18:55:46.590Z,2.72
2022-08-22T18:58:42.124Z,3.30
2022-08-22T19:01:37.478Z,3.13
2022-08-22T19:04:49.391Z,3.50
2022-08-22T19:07:52.831Z,3.08
2022-08-22T19:10:35.613Z,2.72
2022-08-22T19:13:25.716Z,2.63
2022-08-22T19:16:13.577Z,3.05
2022-08-22T19:18:46.123Z,3.35
2022-08-22T19:21:44.194Z,3.22
2022-08-22T19:24:30.030Z,3.47
2022-08-22T19:27:31.552Z,3.42
2022-08-22T19:30:03.548Z,3.60
2022-08-22T19:33:03.320Z,4.47
2022-08-22T19:35:43.141Z,5.40
2022-08-22T19:38:13.494Z,4.30
2022-08-22T19:41:01.774Z,3.47
2022-08-22T19:43:38.010Z,2.90
2022-08-22T19:46:10.279Z,2.72
2022-08-22T19:48:49.387Z,2.35
2022-08-22T19:51:28.238Z,2.63
2022-08-22T19:54:16.502Z,2.67
2022-08-22T19:57:04.455Z,3.00
2022-08-22T19:59:50.895Z,2.97
2022-08-22T20:02:27.297Z,2.60
2022-08-22T20:05:12.546Z,2.38
2022-08-22T20:07:53.977Z,2.85
2022-08-22T20:10:30.327Z,2.67
2022-08-22T20:13:08.074Z,2.40
2022-08-22T20:16:03.889Z,4.00
2022-08-22T20:19:07.260Z,2.67
2022-08-22T20:21:51.057Z,2.72
2022-08-22T20:24:27.445Z,2.35
2022-08-22T20:27:13.474Z,2.75
2022-08-22T20:29:48.096Z,2.95
2022-08-22T20:32:22.015Z,2.40
2022-08-22T20:34:57.021Z,2.42
2022-08-22T20:38:05.738Z,2.47
2022-08-22T20:40:55.571Z,2.80
2022-08-22T20:43:28.226Z,2.80
2022-08-22T20:46:12.380Z,3.20
2022-08-22T20:48:45.687Z,3.90
2022-08-22T20:51:17.791Z,3.90
2022-08-22T20:53:53.164Z,3.10
2022-08-22T20:56:37.892Z,3.40
2022-08-22T20:59:27.620Z,2.97
2022-08-22T21:02:06.598Z,3.20
2022-08-22T21:04:44.303Z,3.15
2022-08-22T21:07:13.208Z,3.10
2022-08-22T21:09:59.145Z,3.10
2022-08-22T21:12:27.957Z,3.15
2022-08-22T21:14:56.359Z,2.65
2022-08-22T21:17:27.574Z,2.90
2022-08-22T21:19:58.680Z,2.97
2022-08-22T21:22:29.641Z,2.97
2022-08-22T21:24:59.730Z,2.83
2022-08-22T21:27:30.541Z,3.35
2022-08-22T21:30:00.155Z,2.90
2022-08-22T21:32:34.132Z,3.00
2022-08-22T21:35:05.814Z,3.50
2022-08-22T21:37:40.147Z,3.30
2022-08-22T21:40:16.104Z,3.60
2022-08-22T21:42:46.751Z,3.15
2022-08-22T21:45:28.987Z,3.10
2022-08-22T21:47:57.954Z,3.00
2022-08-22T21:50:34.746Z,2.65
2022-08-22T21:53:13.948Z,2.70
2022-08-22T21:55:44.399Z,2.80
2022-08-22T21:58:34.172Z,3.10
2022-08-22T22:01:29.603Z,2.75
2022-08-22T22:03:59.463Z,2.42
2022-08-22T22:06:29.155Z,3.00
2022-08-22T22:08:57.389Z,2.85
2022-08-22T22:11:25.671Z,3.15
2022-08-22T22:13:54.408Z,2.95
2022-08-22T22:16:27.203Z,3.00
2022-08-22T22:18:56.894Z,3.25
2022-08-22T22:21:25.383Z,3.25
2022-08-22T22:23:58.414Z,3.00
2022-08-22T22:26:28.693Z,3.30
2022-08-22T22:28:59.472Z,3.00
2022-08-22T22:31:30.192Z,3.25
2022-08-22T22:34:00.452Z,3.00
2022-08-22T22:36:29.184Z,2.80
2022-08-22T22:38:59.107Z,3.25
2022-08-22T22:41:27.430Z,3.60
2022-08-22T22:43:56.312Z,3.30
2022-08-22T22:46:26.826Z,3.60
2022-08-22T22:48:55.406Z,3.13
2022-08-22T22:51:24.073Z,2.97
2022-08-22T22:53:52.454Z,3.28
2022-08-22T22:56:24.327Z,3.45
2022-08-22T22:59:00.609Z,3.20
2022-08-22T23:01:31.902Z,3.38
2022-08-22T23:04:05.779Z,3.25
2022-08-22T23:06:34.630Z,3.10
2022-08-22T23:09:02.861Z,3.05
2022-08-22T23:11:32.759Z,2.65
2022-08-22T23:14:02.960Z,3.05
2022-08-22T23:16:36.599Z,2.90
2022-08-22T23:19:09.574Z,2.90
2022-08-22T23:21:38.095Z,2.80
2022-08-22T23:24:06.841Z,2.60
2022-08-22T23:26:36.947Z,2.80
2022-08-22T23:29:05.829Z,2.80
2022-08-22T23:31:36.051Z,2.92
2022-08-22T23:34:06.636Z,2.80
2022-08-22T23:36:35.477Z,2.83
2022-08-22T23:39:04.601Z,3.00
2022-08-22T23:41:33.484Z,3.00
2022-08-22T23:44:03.373Z,2.78
2022-08-22T23:46:31.861Z,2.83
2022-08-22T23:49:02.071Z,3.08
2022-08-22T23:51:30.533Z,2.97
2022-08-22T23:53:59.566Z,2.58
2022-08-22T23:56:29.481Z,2.58
2022-08-22T23:58:58.300Z,2.45
